sensor_id;sensor_type;location;lat;lon;timestamp;pressure;altitude;pressure_sealevel;temperature;humidity
40155;BME280;25875;48.202;16.334;2022-11-15T00:02:10;99372.19;;;6.45;84.20
40155;BME280;25875;48.202;16.334;2022-11-15T00:04:36;99374.81;;;6.45;84.37
40155;BME280;25875;48.202;16.334;2022-11-15T00:07:03;99367.03;;;6.41;84.46
40155;BME280;25875;48.202;16.334;2022-11-15T00:09:30;99366.34;;;6.36;84.43
40155;BME280;25875;48.202;16.334;2022-11-15T00:11:57;99307.09;;;6.03;84.59
40155;BME280;25875;48.202;16.334;2022-11-15T00:14:24;99357.47;;;6.39;84.58
40155;BME280;25875;48.202;16.334;2022-11-15T00:16:50;99355.66;;;6.41;84.50
40155;BME280;25875;48.202;16.334;2022-11-15T00:19:18;99352.97;;;6.42;84.54
40155;BME280;25875;48.202;16.334;2022-11-15T00:21:45;99297.19;;;6.09;84.43
40155;BME280;25875;48.202;16.334;2022-11-15T00:24:12;99237.00;;;5.78;84.36
40155;BME280;25875;48.202;16.334;2022-11-15T00:26:39;99106.66;;;5.03;84.33
40155;BME280;25875;48.202;16.334;2022-11-15T00:29:06;99325.38;;;6.29;84.57
40155;BME280;25875;48.202;16.334;2022-11-15T00:31:32;99347.81;;;6.39;84.73
40155;BME280;25875;48.202;16.334;2022-11-15T00:33:59;99348.72;;;6.38;84.87
40155;BME280;25875;48.202;16.334;2022-11-15T00:36:28;99345.28;;;6.36;84.89
40155;BME280;25875;48.202;16.334;2022-11-15T00:38:54;99344.38;;;6.37;84.95
40155;BME280;25875;48.202;16.334;2022-11-15T00:41:21;99347.00;;;6.37;84.89
40155;BME280;25875;48.202;16.334;2022-11-15T00:43:48;99337.34;;;6.38;85.01
40155;BME280;25875;48.202;16.334;2022-11-15T00:46:15;99339.97;;;6.38;85.11
40155;BME280;25875;48.202;16.334;2022-11-15T00:48:41;99177.03;;;5.41;85.22
40155;BME280;25875;48.202;16.334;2022-11-15T00:51:08;99280.56;;;6.09;85.04
40155;BME280;25875;48.202;16.334;2022-11-15T00:53:36;99335.44;;;6.41;85.07
40155;BME280;25875;48.202;16.334;2022-11-15T00:56:03;99338.88;;;6.43;84.99
40155;BME280;25875;48.202;16.334;2022-11-15T00:58:30;99346.72;;;6.45;85.14
40155;BME280;25875;48.202;16.334;2022-11-15T01:01:05;99240.94;;;5.90;85.24
40155;BME280;25875;48.202;16.334;2022-11-15T01:03:32;99319.72;;;6.40;84.97
40155;BME280;25875;48.202;16.334;2022-11-15T01:05:59;99321.38;;;6.42;84.88
40155;BME280;25875;48.202;16.334;2022-11-15T01:08:26;99325.84;;;6.40;84.96
40155;BME280;25875;48.202;16.334;2022-11-15T01:10:54;99323.25;;;6.39;85.21
40155;BME280;25875;48.202;16.334;2022-11-15T01:13:21;99317.06;;;6.40;85.12
40155;BME280;25875;48.202;16.334;2022-11-15T01:15:48;99219.38;;;5.81;85.12
40155;BME280;25875;48.202;16.334;2022-11-15T01:18:14;99313.53;;;6.41;85.09
40155;BME280;25875;48.202;16.334;2022-11-15T01:20:41;99310.91;;;6.41;85.04
40155;BME280;25875;48.202;16.334;2022-11-15T01:23:08;99309.91;;;6.43;84.94
40155;BME280;25875;48.202;16.334;2022-11-15T01:25:35;99307.22;;;6.45;85.12
40155;BME280;25875;48.202;16.334;2022-11-15T01:28:03;99312.50;;;6.45;85.11
40155;BME280;25875;48.202;16.334;2022-11-15T01:30:30;99306.44;;;6.43;85.28
40155;BME280;25875;48.202;16.334;2022-11-15T01:32:57;99307.28;;;6.43;85.29
40155;BME280;25875;48.202;16.334;2022-11-15T01:35:24;99274.03;;;6.19;85.43
40155;BME280;25875;48.202;16.334;2022-11-15T01:37:50;99301.28;;;6.40;85.44
40155;BME280;25875;48.202;16.334;2022-11-15T01:40:17;99221.59;;;5.91;85.36
40155;BME280;25875;48.202;16.334;2022-11-15T01:42:44;99126.41;;;5.36;85.44
40155;BME280;25875;48.202;16.334;2022-11-15T01:45:14;99303.06;;;6.39;85.56
40155;BME280;25875;48.202;16.334;2022-11-15T01:47:44;99296.09;;;6.38;85.53
40155;BME280;25875;48.202;16.334;2022-11-15T01:50:14;99298.66;;;6.40;85.40
40155;BME280;25875;48.202;16.334;2022-11-15T01:52:42;99273.16;;;6.19;85.58
40155;BME280;25875;48.202;16.334;2022-11-15T01:55:13;99297.00;;;6.37;85.54
40155;BME280;25875;48.202;16.334;2022-11-15T01:57:43;99295.28;;;6.36;85.51
40155;BME280;25875;48.202;16.334;2022-11-15T02:00:15;99211.31;;;5.85;85.44
40155;BME280;25875;48.202;16.334;2022-11-15T02:02:42;99297.13;;;6.34;85.52
40155;BME280;25875;48.202;16.334;2022-11-15T02:05:09;99291.91;;;6.33;85.36
40155;BME280;25875;48.202;16.334;2022-11-15T02:07:36;99286.59;;;6.34;85.37
40155;BME280;25875;48.202;16.334;2022-11-15T02:10:07;99293.56;;;6.35;85.45
40155;BME280;25875;48.202;16.334;2022-11-15T02:12:34;99295.28;;;6.36;85.46
40155;BME280;25875;48.202;16.334;2022-11-15T02:15:01;99296.25;;;6.34;85.53
40155;BME280;25875;48.202;16.334;2022-11-15T02:17:42;99298.81;;;6.35;85.53
40155;BME280;25875;48.202;16.334;2022-11-15T02:23:21;99211.19;;;5.88;85.46
40155;BME280;25875;48.202;16.334;2022-11-15T02:26:06;99284.75;;;6.36;85.41
40155;BME280;25875;48.202;16.334;2022-11-15T02:28:58;99094.50;;;5.24;85.48
40155;BME280;25875;48.202;16.334;2022-11-15T02:31:35;99288.25;;;6.37;85.50
40155;BME280;25875;48.202;16.334;2022-11-15T02:34:13;99237.22;;;5.72;85.49
40155;BME280;25875;48.202;16.334;2022-11-15T02:36:49;99288.34;;;6.34;85.61
40155;BME280;25875;48.202;16.334;2022-11-15T02:39:28;99260.97;;;6.16;85.58
40155;BME280;25875;48.202;16.334;2022-11-15T02:42:02;99282.19;;;6.35;85.59
40155;BME280;25875;48.202;16.334;2022-11-15T02:44:32;99290.13;;;6.33;85.62
40155;BME280;25875;48.202;16.334;2022-11-15T02:47:05;99287.69;;;6.29;85.89
40155;BME280;25875;48.202;16.334;2022-11-15T02:49:45;99217.72;;;5.78;85.91
40155;BME280;25875;48.202;16.334;2022-11-15T02:52:14;99203.09;;;5.71;85.67
40155;BME280;25875;48.202;16.334;2022-11-15T02:54:42;99285.16;;;6.26;86.02
40155;BME280;25875;48.202;16.334;2022-11-15T02:57:12;99288.59;;;6.28;86.20
40155;BME280;25875;48.202;16.334;2022-11-15T03:00:01;99281.56;;;6.28;86.48
40155;BME280;25875;48.202;16.334;2022-11-15T03:02:40;99118.72;;;5.32;85.88
40155;BME280;25875;48.202;16.334;2022-11-15T03:05:17;98891.63;;;4.00;85.88
40155;BME280;25875;48.202;16.334;2022-11-15T03:07:51;99280.59;;;6.31;86.14
40155;BME280;25875;48.202;16.334;2022-11-15T03:10:21;99277.22;;;6.27;87.07
40155;BME280;25875;48.202;16.334;2022-11-15T03:12:55;99268.47;;;6.27;86.54
40155;BME280;25875;48.202;16.334;2022-11-15T03:15:28;99272.75;;;6.29;86.37
40155;BME280;25875;48.202;16.334;2022-11-15T03:18:00;99270.97;;;6.30;86.12
40155;BME280;25875;48.202;16.334;2022-11-15T03:20:29;99258.66;;;6.30;86.02
40155;BME280;25875;48.202;16.334;2022-11-15T03:23:02;99259.59;;;6.29;86.16
40155;BME280;25875;48.202;16.334;2022-11-15T03:25:32;99256.03;;;6.30;86.13
40155;BME280;25875;48.202;16.334;2022-11-15T03:28:02;99259.53;;;6.31;86.26
40155;BME280;25875;48.202;16.334;2022-11-15T03:30:31;99260.38;;;6.31;86.21
40155;BME280;25875;48.202;16.334;2022-11-15T03:33:02;99221.63;;;6.13;86.31
40155;BME280;25875;48.202;16.334;2022-11-15T03:35:32;99255.19;;;6.30;86.19
40155;BME280;25875;48.202;16.334;2022-11-15T03:38:08;99220.97;;;6.08;86.18
40155;BME280;25875;48.202;16.334;2022-11-15T03:40:39;99245.50;;;6.30;86.00
40155;BME280;25875;48.202;16.334;2022-11-15T03:43:09;99072.63;;;5.23;86.05
40155;BME280;25875;48.202;16.334;2022-11-15T03:45:43;99238.47;;;6.31;86.17
40155;BME280;25875;48.202;16.334;2022-11-15T03:48:14;99227.94;;;6.31;85.99
40155;BME280;25875;48.202;16.334;2022-11-15T03:50:45;99178.09;;;5.83;85.92
40155;BME280;25875;48.202;16.334;2022-11-15T03:53:12;99232.22;;;6.33;85.96
40155;BME280;25875;48.202;16.334;2022-11-15T03:55:39;99222.56;;;6.34;85.92
40155;BME280;25875;48.202;16.334;2022-11-15T03:58:06;99225.19;;;6.34;85.87
40155;BME280;25875;48.202;16.334;2022-11-15T04:00:33;99226.91;;;6.35;86.03
40155;BME280;25875;48.202;16.334;2022-11-15T04:03:00;99206.41;;;6.21;85.88
40155;BME280;25875;48.202;16.334;2022-11-15T04:05:28;99224.22;;;6.36;85.87
40155;BME280;25875;48.202;16.334;2022-11-15T04:07:55;99232.97;;;6.37;85.98
40155;BME280;25875;48.202;16.334;2022-11-15T04:10:22;99232.22;;;6.33;86.09
40155;BME280;25875;48.202;16.334;2022-11-15T04:12:49;99240.97;;;6.34;85.93
40155;BME280;25875;48.202;16.334;2022-11-15T04:15:17;99226.03;;;6.34;85.96
40155;BME280;25875;48.202;16.334;2022-11-15T04:17:45;99223.34;;;6.36;85.90
40155;BME280;25875;48.202;16.334;2022-11-15T04:20:16;99218.03;;;6.37;86.01
40155;BME280;25875;48.202;16.334;2022-11-15T04:23:05;99182.91;;;6.17;85.91
40155;BME280;25875;48.202;16.334;2022-11-15T04:25:51;99206.75;;;6.34;86.01
40155;BME280;25875;48.202;16.334;2022-11-15T04:28:18;98805.38;;;3.93;85.79
40155;BME280;25875;48.202;16.334;2022-11-15T04:30:45;99179.34;;;6.18;85.89
40155;BME280;25875;48.202;16.334;2022-11-15T04:33:12;99210.97;;;6.38;86.01
40155;BME280;25875;48.202;16.334;2022-11-15T04:35:39;99219.69;;;6.40;85.91
40155;BME280;25875;48.202;16.334;2022-11-15T04:38:09;99089.34;;;5.66;85.85
40155;BME280;25875;48.202;16.334;2022-11-15T04:40:35;99212.56;;;6.42;85.97
40155;BME280;25875;48.202;16.334;2022-11-15T04:43:03;99172.13;;;6.23;85.96
40155;BME280;25875;48.202;16.334;2022-11-15T04:45:30;99207.19;;;6.45;85.86
40155;BME280;25875;48.202;16.334;2022-11-15T04:47:57;99202.78;;;6.46;85.96
40155;BME280;25875;48.202;16.334;2022-11-15T04:50:23;99199.28;;;6.45;86.00
40155;BME280;25875;48.202;16.334;2022-11-15T04:52:51;99190.66;;;6.41;86.09
40155;BME280;25875;48.202;16.334;2022-11-15T04:55:20;99188.88;;;6.42;86.09
40155;BME280;25875;48.202;16.334;2022-11-15T04:57:47;99187.28;;;6.38;86.07
40155;BME280;25875;48.202;16.334;2022-11-15T05:00:16;99119.25;;;6.07;86.00
40155;BME280;25875;48.202;16.334;2022-11-15T05:02:43;99183.44;;;6.47;86.15
40155;BME280;25875;48.202;16.334;2022-11-15T05:05:27;99185.28;;;6.45;86.19
40155;BME280;25875;48.202;16.334;2022-11-15T05:07:54;99182.69;;;6.43;86.19
40155;BME280;25875;48.202;16.334;2022-11-15T05:10:22;99189.75;;;6.42;86.05
40155;BME280;25875;48.202;16.334;2022-11-15T05:12:49;99195.00;;;6.42;86.25
40155;BME280;25875;48.202;16.334;2022-11-15T05:15:16;99137.75;;;6.05;86.33
40155;BME280;25875;48.202;16.334;2022-11-15T05:17:42;99181.91;;;6.41;86.44
40155;BME280;25875;48.202;16.334;2022-11-15T05:20:10;99181.91;;;6.41;86.38
40155;BME280;25875;48.202;16.334;2022-11-15T05:22:37;99177.50;;;6.41;86.58
40155;BME280;25875;48.202;16.334;2022-11-15T05:25:05;99174.94;;;6.40;86.52
40155;BME280;25875;48.202;16.334;2022-11-15T05:27:33;99052.44;;;5.69;86.37
40155;BME280;25875;48.202;16.334;2022-11-15T05:30:00;99174.06;;;6.39;86.58
40155;BME280;25875;48.202;16.334;2022-11-15T05:32:27;99166.09;;;6.41;86.52
40155;BME280;25875;48.202;16.334;2022-11-15T05:34:54;99174.00;;;6.41;86.59
40155;BME280;25875;48.202;16.334;2022-11-15T05:37:21;99167.88;;;6.40;86.62
40155;BME280;25875;48.202;16.334;2022-11-15T05:39:48;99169.66;;;6.40;86.63
40155;BME280;25875;48.202;16.334;2022-11-15T05:42:16;99166.97;;;6.41;86.59
40155;BME280;25875;48.202;16.334;2022-11-15T05:44:46;99163.53;;;6.39;86.76
40155;BME280;25875;48.202;16.334;2022-11-15T05:47:16;99155.78;;;6.36;86.78
40155;BME280;25875;48.202;16.334;2022-11-15T05:49:45;99168.75;;;6.41;86.74
40155;BME280;25875;48.202;16.334;2022-11-15T05:52:16;99163.53;;;6.39;86.82
40155;BME280;25875;48.202;16.334;2022-11-15T05:54:43;99163.53;;;6.39;86.97
40155;BME280;25875;48.202;16.334;2022-11-15T05:57:10;99103.47;;;6.07;86.73
40155;BME280;25875;48.202;16.334;2022-11-15T05:59:37;99159.06;;;6.41;86.91
40155;BME280;25875;48.202;16.334;2022-11-15T06:02:07;99164.22;;;6.45;86.87
40155;BME280;25875;48.202;16.334;2022-11-15T06:04:34;99161.44;;;6.48;86.79
40155;BME280;25875;48.202;16.334;2022-11-15T06:07:01;99157.91;;;6.49;86.76
40155;BME280;25875;48.202;16.334;2022-11-15T06:09:28;99159.75;;;6.47;86.67
40155;BME280;25875;48.202;16.334;2022-11-15T06:11:54;99165.00;;;6.47;86.77
40155;BME280;25875;48.202;16.334;2022-11-15T06:14:21;99158.88;;;6.46;86.82
40155;BME280;25875;48.202;16.334;2022-11-15T06:16:48;99125.47;;;6.26;86.75
40155;BME280;25875;48.202;16.334;2022-11-15T06:19:16;99169.34;;;6.48;86.79
40155;BME280;25875;48.202;16.334;2022-11-15T06:21:43;99170.34;;;6.45;86.78
40155;BME280;25875;48.202;16.334;2022-11-15T06:24:09;99114.38;;;5.98;86.79
40155;BME280;25875;48.202;16.334;2022-11-15T06:26:36;99168.50;;;6.47;86.67
40155;BME280;25875;48.202;16.334;2022-11-15T06:29:03;99172.84;;;6.48;86.60
40155;BME280;25875;48.202;16.334;2022-11-15T06:31:30;99174.53;;;6.49;86.72
40155;BME280;25875;48.202;16.334;2022-11-15T06:33:57;99175.41;;;6.50;86.72
40155;BME280;25875;48.202;16.334;2022-11-15T06:36:25;99171.00;;;6.50;86.72
40155;BME280;25875;48.202;16.334;2022-11-15T06:38:52;99167.44;;;6.51;86.67
40155;BME280;25875;48.202;16.334;2022-11-15T06:41:19;99163.94;;;6.51;86.70
40155;BME280;25875;48.202;16.334;2022-11-15T06:43:46;99167.44;;;6.51;86.68
40155;BME280;25875;48.202;16.334;2022-11-15T06:46:13;99174.41;;;6.52;86.67
40155;BME280;25875;48.202;16.334;2022-11-15T06:48:39;98897.94;;;4.90;86.18
40155;BME280;25875;48.202;16.334;2022-11-15T06:51:06;99171.78;;;6.52;86.59
40155;BME280;25875;48.202;16.334;2022-11-15T06:53:35;98982.69;;;5.38;86.67
40155;BME280;25875;48.202;16.334;2022-11-15T06:56:03;99179.63;;;6.54;86.59
40155;BME280;25875;48.202;16.334;2022-11-15T06:58:30;99009.25;;;5.53;86.42
40155;BME280;25875;48.202;16.334;2022-11-15T07:01:00;99180.59;;;6.51;86.67
40155;BME280;25875;48.202;16.334;2022-11-15T07:03:29;99151.56;;;6.32;86.53
40155;BME280;25875;48.202;16.334;2022-11-15T07:05:57;99132.53;;;6.04;86.46
40155;BME280;25875;48.202;16.334;2022-11-15T07:08:24;99180.72;;;6.48;86.58
40155;BME280;25875;48.202;16.334;2022-11-15T07:10:58;99178.97;;;6.49;86.50
40155;BME280;25875;48.202;16.334;2022-11-15T07:13:26;99172.84;;;6.48;86.63
40155;BME280;25875;48.202;16.334;2022-11-15T07:15:52;99178.03;;;6.50;86.46
40155;BME280;25875;48.202;16.334;2022-11-15T07:18:20;99160.59;;;6.47;86.48
40155;BME280;25875;48.202;16.334;2022-11-15T07:20:46;99170.25;;;6.47;86.33
40155;BME280;25875;48.202;16.334;2022-11-15T07:23:13;99169.34;;;6.48;86.51
40155;BME280;25875;48.202;16.334;2022-11-15T07:25:40;99163.09;;;6.50;86.41
40155;BME280;25875;48.202;16.334;2022-11-15T07:28:08;98981.34;;;5.50;86.23
40155;BME280;25875;48.202;16.334;2022-11-15T07:30:35;99158.63;;;6.52;86.39
40155;BME280;25875;48.202;16.334;2022-11-15T07:33:02;99160.41;;;6.52;86.28
40155;BME280;25875;48.202;16.334;2022-11-15T07:35:29;99155.94;;;6.54;86.29
40155;BME280;25875;48.202;16.334;2022-11-15T07:37:57;99150.06;;;6.47;86.23
40155;BME280;25875;48.202;16.334;2022-11-15T07:40:24;99153.28;;;6.54;86.18
40155;BME280;25875;48.202;16.334;2022-11-15T07:42:51;99157.63;;;6.55;86.47
40155;BME280;25875;48.202;16.334;2022-11-15T07:45:23;99151.44;;;6.56;86.40
40155;BME280;25875;48.202;16.334;2022-11-15T07:47:52;99158.44;;;6.57;86.49
40155;BME280;25875;48.202;16.334;2022-11-15T07:50:19;99152.25;;;6.58;86.50
40155;BME280;25875;48.202;16.334;2022-11-15T07:52:46;99117.28;;;6.34;86.63
40155;BME280;25875;48.202;16.334;2022-11-15T07:55:13;99154.94;;;6.56;86.77
40155;BME280;25875;48.202;16.334;2022-11-15T07:57:40;99157.56;;;6.56;86.77
40155;BME280;25875;48.202;16.334;2022-11-15T08:00:08;99155.00;;;6.55;86.95
40155;BME280;25875;48.202;16.334;2022-11-15T08:02:36;99162.06;;;6.54;86.81
40155;BME280;25875;48.202;16.334;2022-11-15T08:05:03;98988.00;;;5.59;86.75
40155;BME280;25875;48.202;16.334;2022-11-15T08:07:30;99135.84;;;6.51;86.94
40155;BME280;25875;48.202;16.334;2022-11-15T08:09:57;99114.63;;;6.34;87.11
40155;BME280;25875;48.202;16.334;2022-11-15T08:12:26;99118.91;;;6.36;87.20
40155;BME280;25875;48.202;16.334;2022-11-15T08:14:54;99147.09;;;6.55;87.30
40155;BME280;25875;48.202;16.334;2022-11-15T08:17:20;99067.69;;;6.03;87.05
40155;BME280;25875;48.202;16.334;2022-11-15T08:19:49;99148.03;;;6.54;87.33
40155;BME280;25875;48.202;16.334;2022-11-15T08:22:15;99032.59;;;5.82;87.15
40155;BME280;25875;48.202;16.334;2022-11-15T08:24:42;99106.94;;;6.29;87.30
40155;BME280;25875;48.202;16.334;2022-11-15T08:27:10;99136.69;;;6.52;87.63
40155;BME280;25875;48.202;16.334;2022-11-15T08:32:09;99087.00;;;6.24;87.70
40155;BME280;25875;48.202;16.334;2022-11-15T08:34:36;99049.22;;;6.04;87.68
40155;BME280;25875;48.202;16.334;2022-11-15T08:37:05;99108.19;;;6.41;87.53
40155;BME280;25875;48.202;16.334;2022-11-15T08:39:31;99146.97;;;6.58;87.68
40155;BME280;25875;48.202;16.334;2022-11-15T08:41:58;99137.44;;;6.55;87.46
40155;BME280;25875;48.202;16.334;2022-11-15T08:44:25;99139.22;;;6.55;87.55
40155;BME280;25875;48.202;16.334;2022-11-15T08:46:52;99140.00;;;6.57;87.62
40155;BME280;25875;48.202;16.334;2022-11-15T08:49:19;99136.50;;;6.56;87.59
40155;BME280;25875;48.202;16.334;2022-11-15T08:51:45;99131.25;;;6.56;87.63
40155;BME280;25875;48.202;16.334;2022-11-15T08:54:13;99140.84;;;6.57;87.63
40155;BME280;25875;48.202;16.334;2022-11-15T08:56:42;99142.56;;;6.58;87.68
40155;BME280;25875;48.202;16.334;2022-11-15T08:59:10;99136.50;;;6.56;87.83
40155;BME280;25875;48.202;16.334;2022-11-15T09:01:36;99139.94;;;6.58;87.94
40155;BME280;25875;48.202;16.334;2022-11-15T09:04:03;99099.03;;;6.29;87.75
40155;BME280;25875;48.202;16.334;2022-11-15T09:06:30;99124.59;;;6.48;87.72
40155;BME280;25875;48.202;16.334;2022-11-15T09:08:57;99135.59;;;6.57;87.82
40155;BME280;25875;48.202;16.334;2022-11-15T09:11:33;99047.44;;;6.05;87.86
40155;BME280;25875;48.202;16.334;2022-11-15T09:14:00;99056.00;;;6.10;87.65
40155;BME280;25875;48.202;16.334;2022-11-15T09:16:27;99126.78;;;6.58;87.84
40155;BME280;25875;48.202;16.334;2022-11-15T09:18:54;99120.66;;;6.58;87.96
40155;BME280;25875;48.202;16.334;2022-11-15T09:21:21;99125.06;;;6.57;87.93
40155;BME280;25875;48.202;16.334;2022-11-15T09:23:50;99081.16;;;6.37;87.89
40155;BME280;25875;48.202;16.334;2022-11-15T09:26:17;99120.72;;;6.56;88.01
40155;BME280;25875;48.202;16.334;2022-11-15T09:28:45;99121.63;;;6.55;88.05
40155;BME280;25875;48.202;16.334;2022-11-15T09:31:12;99111.91;;;6.57;87.99
40155;BME280;25875;48.202;16.334;2022-11-15T09:33:39;99118.88;;;6.58;88.03
40155;BME280;25875;48.202;16.334;2022-11-15T09:36:07;98875.81;;;5.17;87.97
40155;BME280;25875;48.202;16.334;2022-11-15T09:38:34;99106.50;;;6.60;88.06
40155;BME280;25875;48.202;16.334;2022-11-15T09:44:36;99099.50;;;6.59;88.26
40155;BME280;25875;48.202;16.334;2022-11-15T09:47:20;99022.78;;;6.07;88.29
40155;BME280;25875;48.202;16.334;2022-11-15T09:49:51;99073.91;;;6.42;88.14
40155;BME280;25875;48.202;16.334;2022-11-15T09:52:20;99079.25;;;6.61;88.32
40155;BME280;25875;48.202;16.334;2022-11-15T09:54:49;99011.94;;;6.15;87.90
40155;BME280;25875;48.202;16.334;2022-11-15T09:57:21;99071.22;;;6.64;88.21
40155;BME280;25875;48.202;16.334;2022-11-15T10:00:02;99047.38;;;6.47;88.32
40155;BME280;25875;48.202;16.334;2022-11-15T10:02:47;99072.97;;;6.64;88.82
40155;BME280;25875;48.202;16.334;2022-11-15T10:05:20;99071.22;;;6.64;88.41
40155;BME280;25875;48.202;16.334;2022-11-15T10:07:54;98988.31;;;6.14;88.54
40155;BME280;25875;48.202;16.334;2022-11-15T10:10:28;99091.34;;;6.65;88.57
40155;BME280;25875;48.202;16.334;2022-11-15T10:12:56;99028.09;;;6.47;88.50
40155;BME280;25875;48.202;16.334;2022-11-15T10:15:25;99063.16;;;6.67;88.69
40155;BME280;25875;48.202;16.334;2022-11-15T10:18:06;99052.63;;;6.67;88.88
40155;BME280;25875;48.202;16.334;2022-11-15T10:20:42;99045.66;;;6.66;88.69
40155;BME280;25875;48.202;16.334;2022-11-15T10:23:13;99043.88;;;6.67;88.60
40155;BME280;25875;48.202;16.334;2022-11-15T10:25:40;99029.72;;;6.69;88.57
40155;BME280;25875;48.202;16.334;2022-11-15T10:28:13;99029.72;;;6.69;88.50
40155;BME280;25875;48.202;16.334;2022-11-15T10:30:44;99030.66;;;6.68;88.72
40155;BME280;25875;48.202;16.334;2022-11-15T10:33:25;99034.00;;;6.72;88.91
40155;BME280;25875;48.202;16.334;2022-11-15T10:36:19;99026.03;;;6.73;89.21
40155;BME280;25875;48.202;16.334;2022-11-15T10:38:56;99023.53;;;6.70;89.42
40155;BME280;25875;48.202;16.334;2022-11-15T10:41:44;99012.00;;;6.73;89.32
40155;BME280;25875;48.202;16.334;2022-11-15T10:44:23;98950.09;;;6.25;89.22
40155;BME280;25875;48.202;16.334;2022-11-15T10:50:28;98509.91;;;3.74;89.41
40155;BME280;25875;48.202;16.334;2022-11-15T10:52:55;99000.69;;;6.71;89.53
40155;BME280;25875;48.202;16.334;2022-11-15T10:55:25;98936.59;;;6.33;89.39
40155;BME280;25875;48.202;16.334;2022-11-15T10:57:55;98990.94;;;6.73;89.67
40155;BME280;25875;48.202;16.334;2022-11-15T11:00:29;98991.94;;;6.70;89.93
40155;BME280;25875;48.202;16.334;2022-11-15T11:02:58;98989.28;;;6.70;89.79
40155;BME280;25875;48.202;16.334;2022-11-15T11:05:30;98987.53;;;6.71;89.72
40155;BME280;25875;48.202;16.334;2022-11-15T11:08:01;98902.78;;;6.24;90.03
40155;BME280;25875;48.202;16.334;2022-11-15T11:10:29;98978.75;;;6.70;89.97
40155;BME280;25875;48.202;16.334;2022-11-15T11:12:55;98976.91;;;6.72;90.17
40155;BME280;25875;48.202;16.334;2022-11-15T11:15:24;98978.84;;;6.69;90.26
40155;BME280;25875;48.202;16.334;2022-11-15T11:18:05;98965.59;;;6.70;90.55
40155;BME280;25875;48.202;16.334;2022-11-15T11:20:41;98963.88;;;6.69;90.52
40155;BME280;25875;48.202;16.334;2022-11-15T11:23:30;98883.44;;;6.25;90.59
40155;BME280;25875;48.202;16.334;2022-11-15T11:26:11;98920.75;;;6.53;90.53
40155;BME280;25875;48.202;16.334;2022-11-15T11:28:48;98951.38;;;6.74;90.46
40155;BME280;25875;48.202;16.334;2022-11-15T11:31:24;98954.78;;;6.77;90.40
40155;BME280;25875;48.202;16.334;2022-11-15T11:34:02;98947.72;;;6.77;90.40
40155;BME280;25875;48.202;16.334;2022-11-15T11:36:39;98841.81;;;6.14;90.42
40155;BME280;25875;48.202;16.334;2022-11-15T11:39:19;98948.53;;;6.79;90.56
40155;BME280;25875;48.202;16.334;2022-11-15T11:41:55;98946.88;;;6.77;90.52
40155;BME280;25875;48.202;16.334;2022-11-15T11:44:32;98907.16;;;6.62;90.50
40155;BME280;25875;48.202;16.334;2022-11-15T11:47:01;98931.81;;;6.80;90.46
40155;BME280;25875;48.202;16.334;2022-11-15T11:49:34;98897.47;;;6.63;90.37
40155;BME280;25875;48.202;16.334;2022-11-15T11:52:09;98919.44;;;6.82;90.51
40155;BME280;25875;48.202;16.334;2022-11-15T11:54:43;98801.34;;;6.17;90.26
40155;BME280;25875;48.202;16.334;2022-11-15T11:57:17;98907.75;;;6.88;90.33
40155;BME280;25875;48.202;16.334;2022-11-15T11:59:51;98863.88;;;6.68;90.21
40155;BME280;25875;48.202;16.334;2022-11-15T12:02:27;98895.38;;;6.90;90.40
40155;BME280;25875;48.202;16.334;2022-11-15T12:05:03;98896.28;;;6.89;90.56
40155;BME280;25875;48.202;16.334;2022-11-15T12:07:36;98812.59;;;6.39;90.49
40155;BME280;25875;48.202;16.334;2022-11-15T12:10:15;98884.84;;;6.90;90.53
40155;BME280;25875;48.202;16.334;2022-11-15T12:12:51;98847.94;;;6.71;90.18
40155;BME280;25875;48.202;16.334;2022-11-15T12:15:22;98877.56;;;6.95;89.98
40155;BME280;25875;48.202;16.334;2022-11-15T12:17:51;98878.56;;;6.92;90.15
40155;BME280;25875;48.202;16.334;2022-11-15T12:20:20;98864.38;;;6.95;90.05
40155;BME280;25875;48.202;16.334;2022-11-15T12:22:53;98675.59;;;5.87;90.13
40155;BME280;25875;48.202;16.334;2022-11-15T12:25:26;98805.31;;;6.63;90.10
40155;BME280;25875;48.202;16.334;2022-11-15T12:27:58;98852.00;;;6.97;90.00
40155;BME280;25875;48.202;16.334;2022-11-15T12:30:40;98855.34;;;7.00;90.08
40155;BME280;25875;48.202;16.334;2022-11-15T12:33:38;98711.13;;;6.15;90.18
40155;BME280;25875;48.202;16.334;2022-11-15T12:36:10;98843.09;;;6.99;89.93
40155;BME280;25875;48.202;16.334;2022-11-15T12:38:53;98850.84;;;7.02;90.03
40155;BME280;25875;48.202;16.334;2022-11-15T12:41:24;98851.53;;;7.06;89.89
40155;BME280;25875;48.202;16.334;2022-11-15T12:43:51;98844.50;;;7.06;89.86
40155;BME280;25875;48.202;16.334;2022-11-15T12:49:44;98840.06;;;7.07;89.92
40155;BME280;25875;48.202;16.334;2022-11-15T12:52:11;98836.59;;;7.06;89.46
40155;BME280;25875;48.202;16.334;2022-11-15T12:57:55;98819.84;;;7.07;89.39
40155;BME280;25875;48.202;16.334;2022-11-15T13:00:44;98817.06;;;7.11;89.36
40155;BME280;25875;48.202;16.334;2022-11-15T13:03:25;98781.00;;;6.94;89.53
40155;BME280;25875;48.202;16.334;2022-11-15T13:06:06;98722.84;;;6.62;89.26
40155;BME280;25875;48.202;16.334;2022-11-15T13:08:51;98814.03;;;7.18;89.43
40155;BME280;25875;48.202;16.334;2022-11-15T13:11:47;98807.00;;;7.19;89.35
40155;BME280;25875;48.202;16.334;2022-11-15T13:14:43;98812.19;;;7.20;89.32
40155;BME280;25875;48.202;16.334;2022-11-15T13:17:22;98793.97;;;7.16;89.04
40155;BME280;25875;48.202;16.334;2022-11-15T13:19:53;98788.63;;;7.17;89.05
40155;BME280;25875;48.202;16.334;2022-11-15T13:22:21;98781.88;;;7.12;88.94
40155;BME280;25875;48.202;16.334;2022-11-15T13:25:15;98784.91;;;7.21;88.99
40155;BME280;25875;48.202;16.334;2022-11-15T13:27:44;98793.59;;;7.23;88.84
40155;BME280;25875;48.202;16.334;2022-11-15T13:30:18;98791.88;;;7.22;88.91
40155;BME280;25875;48.202;16.334;2022-11-15T13:32:47;98749.94;;;7.00;88.96
40155;BME280;25875;48.202;16.334;2022-11-15T13:35:20;98786.59;;;7.22;88.71
40155;BME280;25875;48.202;16.334;2022-11-15T13:37:47;98735.59;;;6.89;88.84